sensor_id;sensor_type;location;lat;lon;timestamp;temperature;humidity
65231;DHT22;51813;40.666;16.602;2022-11-20T00:00:49;18.70;70.40
65231;DHT22;51813;40.666;16.602;2022-11-20T00:03:15;18.70;70.40
65231;DHT22;51813;40.666;16.602;2022-11-20T00:05:40;18.70;70.30
65231;DHT22;51813;40.666;16.602;2022-11-20T00:08:06;18.80;70.40
65231;DHT22;51813;40.666;16.602;2022-11-20T00:10:32;18.70;70.30
65231;DHT22;51813;40.666;16.602;2022-11-20T00:12:58;18.70;70.60
65231;DHT22;51813;40.666;16.602;2022-11-20T00:15:24;18.70;70.50
65231;DHT22;51813;40.666;16.602;2022-11-20T00:17:50;18.70;70.60
65231;DHT22;51813;40.666;16.602;2022-11-20T00:20:16;18.70;70.60
65231;DHT22;51813;40.666;16.602;2022-11-20T00:22:41;18.70;70.60
65231;DHT22;51813;40.666;16.602;2022-11-20T00:25:07;18.70;70.60
65231;DHT22;51813;40.666;16.602;2022-11-20T00:27:33;18.70;70.60
65231;DHT22;51813;40.666;16.602;2022-11-20T00:29:58;18.70;70.60
65231;DHT22;51813;40.666;16.602;2022-11-20T00:32:24;18.70;70.40
65231;DHT22;51813;40.666;16.602;2022-11-20T00:34:50;18.80;70.40
65231;DHT22;51813;40.666;16.602;2022-11-20T00:37:15;18.80;70.40
65231;DHT22;51813;40.666;16.602;2022-11-20T00:39:41;18.70;70.30
65231;DHT22;51813;40.666;16.602;2022-11-20T00:42:07;18.80;70.40
65231;DHT22;51813;40.666;16.602;2022-11-20T00:44:32;18.70;70.50
65231;DHT22;51813;40.666;16.602;2022-11-20T00:46:58;18.70;70.30
65231;DHT22;51813;40.666;16.602;2022-11-20T00:49:24;18.70;70.50
65231;DHT22;51813;40.666;16.602;2022-11-20T00:51:49;18.70;70.50
65231;DHT22;51813;40.666;16.602;2022-11-20T00:54:15;18.70;70.60
65231;DHT22;51813;40.666;16.602;2022-11-20T00:56:41;18.70;70.60
65231;DHT22;51813;40.666;16.602;2022-11-20T00:59:09;18.70;70.60
65231;DHT22;51813;40.666;16.602;2022-11-20T01:01:36;18.70;70.50
65231;DHT22;51813;40.666;16.602;2022-11-20T01:04:01;18.70;70.30
65231;DHT22;51813;40.666;16.602;2022-11-20T01:06:38;18.70;70.40
65231;DHT22;51813;40.666;16.602;2022-11-20T01:09:11;18.80;70.40
65231;DHT22;51813;40.666;16.602;2022-11-20T01:11:39;18.80;70.30
65231;DHT22;51813;40.666;16.602;2022-11-20T01:14:09;18.70;70.20
65231;DHT22;51813;40.666;16.602;2022-11-20T01:16:38;18.70;70.30
65231;DHT22;51813;40.666;16.602;2022-11-20T01:19:07;18.70;71.00
65231;DHT22;51813;40.666;16.602;2022-11-20T01:21:39;18.70;70.30
65231;DHT22;51813;40.666;16.602;2022-11-20T01:24:06;18.70;70.30
65231;DHT22;51813;40.666;16.602;2022-11-20T01:26:35;18.70;70.30
65231;DHT22;51813;40.666;16.602;2022-11-20T01:29:01;18.70;70.30
65231;DHT22;51813;40.666;16.602;2022-11-20T01:31:30;18.70;70.30
65231;DHT22;51813;40.666;16.602;2022-11-20T01:33:57;18.70;70.30
65231;DHT22;51813;40.666;16.602;2022-11-20T01:36:26;18.70;70.30
65231;DHT22;51813;40.666;16.602;2022-11-20T01:38:57;18.80;70.30
65231;DHT22;51813;40.666;16.602;2022-11-20T01:41:24;18.70;70.00
65231;DHT22;51813;40.666;16.602;2022-11-20T01:44:11;18.80;70.10
65231;DHT22;51813;40.666;16.602;2022-11-20T01:46:42;18.70;70.00
65231;DHT22;51813;40.666;16.602;2022-11-20T01:49:20;18.70;70.00
65231;DHT22;51813;40.666;16.602;2022-11-20T01:52:03;18.70;70.10
65231;DHT22;51813;40.666;16.602;2022-11-20T01:54:35;18.70;70.00
65231;DHT22;51813;40.666;16.602;2022-11-20T01:57:02;18.70;70.20
65231;DHT22;51813;40.666;16.602;2022-11-20T01:59:29;18.70;70.20
65231;DHT22;51813;40.666;16.602;2022-11-20T02:01:55;18.70;70.20
65231;DHT22;51813;40.666;16.602;2022-11-20T02:04:23;18.70;70.10
65231;DHT22;51813;40.666;16.602;2022-11-20T02:07:09;18.70;70.30
65231;DHT22;51813;40.666;16.602;2022-11-20T02:09:36;18.70;70.10
65231;DHT22;51813;40.666;16.602;2022-11-20T02:12:01;18.70;70.00
65231;DHT22;51813;40.666;16.602;2022-11-20T02:14:28;18.80;70.00
65231;DHT22;51813;40.666;16.602;2022-11-20T02:16:54;18.70;69.90
65231;DHT22;51813;40.666;16.602;2022-11-20T02:19:27;18.70;69.90
65231;DHT22;51813;40.666;16.602;2022-11-20T02:22:03;18.70;70.00
65231;DHT22;51813;40.666;16.602;2022-11-20T02:24:30;18.70;70.00
65231;DHT22;51813;40.666;16.602;2022-11-20T02:27:03;18.70;69.90
65231;DHT22;51813;40.666;16.602;2022-11-20T02:29:53;18.70;70.00
65231;DHT22;51813;40.666;16.602;2022-11-20T02:32:29;18.70;70.00
65231;DHT22;51813;40.666;16.602;2022-11-20T02:34:55;18.70;69.90
65231;DHT22;51813;40.666;16.602;2022-11-20T02:37:22;18.70;70.00
65231;DHT22;51813;40.666;16.602;2022-11-20T02:39:50;18.70;70.00
65231;DHT22;51813;40.666;16.602;2022-11-20T02:42:17;18.70;69.80
65231;DHT22;51813;40.666;16.602;2022-11-20T02:44:42;18.70;69.70
65231;DHT22;51813;40.666;16.602;2022-11-20T02:47:08;18.70;69.70
65231;DHT22;51813;40.666;16.602;2022-11-20T02:49:34;18.70;69.50
65231;DHT22;51813;40.666;16.602;2022-11-20T02:52:00;18.70;69.50
65231;DHT22;51813;40.666;16.602;2022-11-20T02:54:26;18.70;69.50
65231;DHT22;51813;40.666;16.602;2022-11-20T02:56:51;18.60;69.50
65231;DHT22;51813;40.666;16.602;2022-11-20T02:59:17;18.70;69.40
65231;DHT22;51813;40.666;16.602;2022-11-20T03:01:43;18.60;69.30
65231;DHT22;51813;40.666;16.602;2022-11-20T03:04:08;18.60;69.30
65231;DHT22;51813;40.666;16.602;2022-11-20T03:06:34;18.60;69.30
65231;DHT22;51813;40.666;16.602;2022-11-20T03:09:00;18.60;69.50
65231;DHT22;51813;40.666;16.602;2022-11-20T03:11:25;18.70;69.50
65231;DHT22;51813;40.666;16.602;2022-11-20T03:13:51;18.70;69.30
65231;DHT22;51813;40.666;16.602;2022-11-20T03:16:20;18.70;69.30
65231;DHT22;51813;40.666;16.602;2022-11-20T03:18:46;18.70;69.20
65231;DHT22;51813;40.666;16.602;2022-11-20T03:21:13;18.70;68.90
65231;DHT22;51813;40.666;16.602;2022-11-20T03:23:39;18.70;69.00
65231;DHT22;51813;40.666;16.602;2022-11-20T03:26:20;18.70;68.70
65231;DHT22;51813;40.666;16.602;2022-11-20T03:28:51;18.60;68.70
65231;DHT22;51813;40.666;16.602;2022-11-20T03:31:20;18.70;68.60
65231;DHT22;51813;40.666;16.602;2022-11-20T03:33:46;18.60;68.70
65231;DHT22;51813;40.666;16.602;2022-11-20T03:36:14;18.60;68.50
65231;DHT22;51813;40.666;16.602;2022-11-20T03:38:41;18.60;68.70
65231;DHT22;51813;40.666;16.602;2022-11-20T03:41:09;18.60;69.00
65231;DHT22;51813;40.666;16.602;2022-11-20T03:43:35;18.70;68.90
65231;DHT22;51813;40.666;16.602;2022-11-20T03:46:02;18.70;68.70
65231;DHT22;51813;40.666;16.602;2022-11-20T03:48:28;18.70;68.70
65231;DHT22;51813;40.666;16.602;2022-11-20T03:51:06;18.70;68.70
65231;DHT22;51813;40.666;16.602;2022-11-20T03:53:32;18.70;68.40
65231;DHT22;51813;40.666;16.602;2022-11-20T03:55:58;18.70;68.40
65231;DHT22;51813;40.666;16.602;2022-11-20T03:58:23;18.60;68.10
65231;DHT22;51813;40.666;16.602;2022-11-20T04:00:49;18.60;68.00
65231;DHT22;51813;40.666;16.602;2022-11-20T04:03:15;18.60;68.00
65231;DHT22;51813;40.666;16.602;2022-11-20T04:05:40;18.60;67.80
65231;DHT22;51813;40.666;16.602;2022-11-20T04:08:06;18.60;67.90
65231;DHT22;51813;40.666;16.602;2022-11-20T04:10:32;18.60;67.90
65231;DHT22;51813;40.666;16.602;2022-11-20T04:12:57;18.60;68.50
65231;DHT22;51813;40.666;16.602;2022-11-20T04:15:23;18.60;68.50
65231;DHT22;51813;40.666;16.602;2022-11-20T04:17:48;18.70;68.00
65231;DHT22;51813;40.666;16.602;2022-11-20T04:20:14;18.70;68.20
65231;DHT22;51813;40.666;16.602;2022-11-20T04:22:40;18.60;68.20
65231;DHT22;51813;40.666;16.602;2022-11-20T04:25:06;18.70;67.80
65231;DHT22;51813;40.666;16.602;2022-11-20T04:27:31;18.60;67.80
65231;DHT22;51813;40.666;16.602;2022-11-20T04:29:57;18.60;67.70
65231;DHT22;51813;40.666;16.602;2022-11-20T04:32:23;18.60;67.70
65231;DHT22;51813;40.666;16.602;2022-11-20T04:34:48;18.60;67.80
65231;DHT22;51813;40.666;16.602;2022-11-20T04:37:14;18.60;67.60
65231;DHT22;51813;40.666;16.602;2022-11-20T04:39:40;18.60;67.50
65231;DHT22;51813;40.666;16.602;2022-11-20T04:42:05;18.60;67.60
65231;DHT22;51813;40.666;16.602;2022-11-20T04:45:00;18.60;68.30
65231;DHT22;51813;40.666;16.602;2022-11-20T04:47:26;18.70;68.00
65231;DHT22;51813;40.666;16.602;2022-11-20T04:49:51;18.70;68.00
65231;DHT22;51813;40.666;16.602;2022-11-20T04:52:17;18.70;68.00
65231;DHT22;51813;40.666;16.602;2022-11-20T04:54:43;18.60;67.80
65231;DHT22;51813;40.666;16.602;2022-11-20T04:57:09;18.60;67.80
65231;DHT22;51813;40.666;16.602;2022-11-20T04:59:34;18.60;67.50
65231;DHT22;51813;40.666;16.602;2022-11-20T05:02:00;18.60;67.50
65231;DHT22;51813;40.666;16.602;2022-11-20T05:04:26;18.60;67.50
65231;DHT22;51813;40.666;16.602;2022-11-20T05:06:51;18.60;67.40
65231;DHT22;51813;40.666;16.602;2022-11-20T05:09:17;18.60;67.60
65231;DHT22;51813;40.666;16.602;2022-11-20T05:11:43;18.60;67.50
65231;DHT22;51813;40.666;16.602;2022-11-20T05:14:08;18.60;67.40
65231;DHT22;51813;40.666;16.602;2022-11-20T05:16:35;18.60;68.10
65231;DHT22;51813;40.666;16.602;2022-11-20T05:19:01;18.60;67.90
65231;DHT22;51813;40.666;16.602;2022-11-20T05:21:29;18.70;67.80
65231;DHT22;51813;40.666;16.602;2022-11-20T05:23:55;18.70;67.60
65231;DHT22;51813;40.666;16.602;2022-11-20T05:26:22;18.60;67.60
65231;DHT22;51813;40.666;16.602;2022-11-20T05:28:48;18.70;67.70
65231;DHT22;51813;40.666;16.602;2022-11-20T05:31:17;18.60;67.50
65231;DHT22;51813;40.666;16.602;2022-11-20T05:33:43;18.70;67.20
65231;DHT22;51813;40.666;16.602;2022-11-20T05:36:11;18.70;67.10
65231;DHT22;51813;40.666;16.602;2022-11-20T05:38:37;18.60;67.00
65231;DHT22;51813;40.666;16.602;2022-11-20T05:43:35;18.60;67.40
65231;DHT22;51813;40.666;16.602;2022-11-20T05:46:01;18.60;67.20
65231;DHT22;51813;40.666;16.602;2022-11-20T05:48:27;18.60;67.90
65231;DHT22;51813;40.666;16.602;2022-11-20T05:50:53;18.60;67.70
65231;DHT22;51813;40.666;16.602;2022-11-20T05:53:18;18.60;67.60
65231;DHT22;51813;40.666;16.602;2022-11-20T05:55:44;18.60;67.50
65231;DHT22;51813;40.666;16.602;2022-11-20T05:58:10;18.70;67.30
65231;DHT22;51813;40.666;16.602;2022-11-20T06:00:35;18.60;67.00
65231;DHT22;51813;40.666;16.602;2022-11-20T06:03:01;18.60;66.80
65231;DHT22;51813;40.666;16.602;2022-11-20T06:05:27;18.60;66.80
65231;DHT22;51813;40.666;16.602;2022-11-20T06:07:53;18.60;67.00
65231;DHT22;51813;40.666;16.602;2022-11-20T06:10:18;18.60;66.80
65231;DHT22;51813;40.666;16.602;2022-11-20T06:12:44;18.60;66.70
65231;DHT22;51813;40.666;16.602;2022-11-20T06:15:10;18.60;66.60
65231;DHT22;51813;40.666;16.602;2022-11-20T06:17:35;18.60;66.70
65231;DHT22;51813;40.666;16.602;2022-11-20T06:20:01;18.60;67.20
65231;DHT22;51813;40.666;16.602;2022-11-20T06:22:27;18.60;67.30
65231;DHT22;51813;40.666;16.602;2022-11-20T06:24:53;18.60;67.80
65231;DHT22;51813;40.666;16.602;2022-11-20T06:27:18;18.70;67.10
65231;DHT22;51813;40.666;16.602;2022-11-20T06:29:44;18.60;67.00
65231;DHT22;51813;40.666;16.602;2022-11-20T06:32:10;18.60;66.80
65231;DHT22;51813;40.666;16.602;2022-11-20T06:34:36;18.60;67.40
65231;DHT22;51813;40.666;16.602;2022-11-20T06:37:01;18.60;66.60
65231;DHT22;51813;40.666;16.602;2022-11-20T06:39:27;18.60;66.50
65231;DHT22;51813;40.666;16.602;2022-11-20T06:41:52;18.60;66.50
65231;DHT22;51813;40.666;16.602;2022-11-20T06:44:18;18.60;67.20
65231;DHT22;51813;40.666;16.602;2022-11-20T06:46:44;18.60;66.60
65231;DHT22;51813;40.666;16.602;2022-11-20T06:49:09;18.60;66.70
65231;DHT22;51813;40.666;16.602;2022-11-20T06:51:35;18.50;67.00
65231;DHT22;51813;40.666;16.602;2022-11-20T06:54:01;18.60;67.30
65231;DHT22;51813;40.666;16.602;2022-11-20T06:56:26;18.60;66.70
65231;DHT22;51813;40.666;16.602;2022-11-20T06:58:52;18.60;67.00
65231;DHT22;51813;40.666;16.602;2022-11-20T07:01:18;18.60;66.90
65231;DHT22;51813;40.666;16.602;2022-11-20T07:03:43;18.60;66.10
65231;DHT22;51813;40.666;16.602;2022-11-20T07:06:09;18.50;65.80
65231;DHT22;51813;40.666;16.602;2022-11-20T07:08:35;18.50;65.70
65231;DHT22;51813;40.666;16.602;2022-11-20T07:11:04;18.50;65.90
65231;DHT22;51813;40.666;16.602;2022-11-20T07:13:31;18.50;65.90
65231;DHT22;51813;40.666;16.602;2022-11-20T07:16:00;18.50;65.70
65231;DHT22;51813;40.666;16.602;2022-11-20T07:18:27;18.50;65.70
65231;DHT22;51813;40.666;16.602;2022-11-20T07:20:52;18.60;66.00
65231;DHT22;51813;40.666;16.602;2022-11-20T07:23:18;18.50;66.30
65231;DHT22;51813;40.666;16.602;2022-11-20T07:25:44;18.60;66.70
65231;DHT22;51813;40.666;16.602;2022-11-20T07:28:09;18.60;66.50
65231;DHT22;51813;40.666;16.602;2022-11-20T07:30:36;18.60;66.40
65231;DHT22;51813;40.666;16.602;2022-11-20T07:33:01;18.60;66.30
65231;DHT22;51813;40.666;16.602;2022-11-20T07:35:27;18.60;66.10
65231;DHT22;51813;40.666;16.602;2022-11-20T07:37:53;18.60;66.30
65231;DHT22;51813;40.666;16.602;2022-11-20T07:40:19;18.60;65.90
65231;DHT22;51813;40.666;16.602;2022-11-20T07:42:52;18.50;65.80
65231;DHT22;51813;40.666;16.602;2022-11-20T07:45:19;18.60;65.80
65231;DHT22;51813;40.666;16.602;2022-11-20T07:47:45;18.50;65.60
65231;DHT22;51813;40.666;16.602;2022-11-20T07:50:11;18.50;66.00
65231;DHT22;51813;40.666;16.602;2022-11-20T07:52:37;18.50;65.70
65231;DHT22;51813;40.666;16.602;2022-11-20T07:55:03;18.60;66.30
65231;DHT22;51813;40.666;16.602;2022-11-20T07:57:29;18.50;66.30
65231;DHT22;51813;40.666;16.602;2022-11-20T07:59:55;18.60;66.20
65231;DHT22;51813;40.666;16.602;2022-11-20T08:02:21;18.60;66.00
65231;DHT22;51813;40.666;16.602;2022-11-20T08:04:46;18.60;66.10
65231;DHT22;51813;40.666;16.602;2022-11-20T08:07:12;18.60;66.10
65231;DHT22;51813;40.666;16.602;2022-11-20T08:09:38;18.60;65.80
65231;DHT22;51813;40.666;16.602;2022-11-20T08:12:04;18.60;65.70
65231;DHT22;51813;40.666;16.602;2022-11-20T08:14:48;18.50;65.10
65231;DHT22;51813;40.666;16.602;2022-11-20T08:17:13;18.50;65.30
65231;DHT22;51813;40.666;16.602;2022-11-20T08:19:39;18.50;64.90
65231;DHT22;51813;40.666;16.602;2022-11-20T08:22:04;18.50;65.40
65231;DHT22;51813;40.666;16.602;2022-11-20T08:24:30;18.50;65.60
65231;DHT22;51813;40.666;16.602;2022-11-20T08:26:59;18.50;65.30
65231;DHT22;51813;40.666;16.602;2022-11-20T08:29:28;18.50;66.10
65231;DHT22;51813;40.666;16.602;2022-11-20T08:31:54;18.60;65.50
65231;DHT22;51813;40.666;16.602;2022-11-20T08:34:20;18.60;65.00
65231;DHT22;51813;40.666;16.602;2022-11-20T08:36:46;18.50;65.10
65231;DHT22;51813;40.666;16.602;2022-11-20T08:39:12;18.60;65.00
65231;DHT22;51813;40.666;16.602;2022-11-20T08:41:38;18.60;65.10
65231;DHT22;51813;40.666;16.602;2022-11-20T08:44:06;18.60;65.20
65231;DHT22;51813;40.666;16.602;2022-11-20T08:46:39;18.50;64.90
65231;DHT22;51813;40.666;16.602;2022-11-20T08:49:08;18.50;64.80
65231;DHT22;51813;40.666;16.602;2022-11-20T08:51:35;18.60;64.80
65231;DHT22;51813;40.666;16.602;2022-11-20T08:54:01;18.50;64.70
65231;DHT22;51813;40.666;16.602;2022-11-20T08:56:27;18.60;65.10
65231;DHT22;51813;40.666;16.602;2022-11-20T08:58:53;18.50;65.00
65231;DHT22;51813;40.666;16.602;2022-11-20T09:01:20;18.60;65.90
65231;DHT22;51813;40.666;16.602;2022-11-20T09:03:46;18.60;65.50
65231;DHT22;51813;40.666;16.602;2022-11-20T09:06:12;18.60;65.50
65231;DHT22;51813;40.666;16.602;2022-11-20T09:08:38;18.60;65.40
65231;DHT22;51813;40.666;16.602;2022-11-20T09:11:05;18.60;64.80
65231;DHT22;51813;40.666;16.602;2022-11-20T09:13:34;18.50;64.80
65231;DHT22;51813;40.666;16.602;2022-11-20T09:16:02;18.60;64.70
65231;DHT22;51813;40.666;16.602;2022-11-20T09:18:29;18.50;64.60
65231;DHT22;51813;40.666;16.602;2022-11-20T09:21:00;18.50;64.90
65231;DHT22;51813;40.666;16.602;2022-11-20T09:23:27;18.50;64.70
65231;DHT22;51813;40.666;16.602;2022-11-20T09:25:56;18.50;64.80
65231;DHT22;51813;40.666;16.602;2022-11-20T09:28:25;18.50;64.90
65231;DHT22;51813;40.666;16.602;2022-11-20T09:30:51;18.50;64.60
65231;DHT22;51813;40.666;16.602;2022-11-20T09:33:17;18.50;65.10
65231;DHT22;51813;40.666;16.602;2022-11-20T09:35:43;18.50;65.30
65231;DHT22;51813;40.666;16.602;2022-11-20T09:38:10;18.50;65.00
65231;DHT22;51813;40.666;16.602;2022-11-20T09:41:04;18.60;65.00
65231;DHT22;51813;40.666;16.602;2022-11-20T09:43:53;18.50;64.90
65231;DHT22;51813;40.666;16.602;2022-11-20T09:46:28;18.50;64.30
65231;DHT22;51813;40.666;16.602;2022-11-20T09:51:58;18.50;64.60
65231;DHT22;51813;40.666;16.602;2022-11-20T09:54:36;18.50;64.40
65231;DHT22;51813;40.666;16.602;2022-11-20T09:57:25;18.50;64.50
65231;DHT22;51813;40.666;16.602;2022-11-20T09:59:58;18.50;64.60
65231;DHT22;51813;40.666;16.602;2022-11-20T10:06:04;18.50;64.90
65231;DHT22;51813;40.666;16.602;2022-11-20T10:08:27;18.60;65.10
65231;DHT22;51813;40.666;16.602;2022-11-20T10:14:20;18.60;64.70
65231;DHT22;51813;40.666;16.602;2022-11-20T10:17:03;18.60;64.60
65231;DHT22;51813;40.666;16.602;2022-11-20T10:24:56;18.50;64.10
65231;DHT22;51813;40.666;16.602;2022-11-20T10:27:35;18.50;64.00
65231;DHT22;51813;40.666;16.602;2022-11-20T10:30:10;18.50;64.00
65231;DHT22;51813;40.666;16.602;2022-11-20T10:32:39;18.50;64.00
65231;DHT22;51813;40.666;16.602;2022-11-20T10:35:25;18.50;64.00
65231;DHT22;51813;40.666;16.602;2022-11-20T10:38:01;18.50;64.40
65231;DHT22;51813;40.666;16.602;2022-11-20T10:40:44;18.60;64.70
65231;DHT22;51813;40.666;16.602;2022-11-20T10:43:32;18.60;64.10
65231;DHT22;51813;40.666;16.602;2022-11-20T10:46:03;18.60;64.00
65231;DHT22;51813;40.666;16.602;2022-11-20T10:48:31;18.60;64.20
65231;DHT22;51813;40.666;16.602;2022-11-20T10:56:41;18.50;63.50
65231;DHT22;51813;40.666;16.602;2022-11-20T11:01:51;18.50;63.80
65231;DHT22;51813;40.666;16.602;2022-11-20T11:04:33;18.50;63.90
65231;DHT22;51813;40.666;16.602;2022-11-20T11:09:40;18.60;64.00
65231;DHT22;51813;40.666;16.602;2022-11-20T11:12:10;18.60;64.50
65231;DHT22;51813;40.666;16.602;2022-11-20T11:14:56;18.60;64.20
65231;DHT22;51813;40.666;16.602;2022-11-20T11:17:31;18.60;64.10
65231;DHT22;51813;40.666;16.602;2022-11-20T11:20:24;18.60;63.80
65231;DHT22;51813;40.666;16.602;2022-11-20T11:22:58;18.60;63.90
65231;DHT22;51813;40.666;16.602;2022-11-20T11:27:59;18.60;64.00
65231;DHT22;51813;40.666;16.602;2022-11-20T11:30:26;18.50;64.10
65231;DHT22;51813;40.666;16.602;2022-11-20T11:33:09;18.50;64.00
65231;DHT22;51813;40.666;16.602;2022-11-20T11:35:48;18.50;64.00
65231;DHT22;51813;40.666;16.602;2022-11-20T11:38:21;18.50;64.00
65231;DHT22;51813;40.666;16.602;2022-11-20T11:40:48;18.50;64.00
65231;DHT22;51813;40.666;16.602;2022-11-20T11:43:20;18.60;64.80
65231;DHT22;51813;40.666;16.602;2022-11-20T11:54:20;18.50;63.70
65231;DHT22;51813;40.666;16.602;2022-11-20T11:56:49;18.50;64.50
65231;DHT22;51813;40.666;16.602;2022-11-20T11:59:24;18.60;63.90
65231;DHT22;51813;40.666;16.602;2022-11-20T12:01:59;18.50;63.80
65231;DHT22;51813;40.666;16.602;2022-11-20T12:04:49;18.50;64.10
65231;DHT22;51813;40.666;16.602;2022-11-20T12:09:53;18.50;63.90
65231;DHT22;51813;40.666;16.602;2022-11-20T12:12:39;18.50;64.00
65231;DHT22;51813;40.666;16.602;2022-11-20T12:15:10;18.50;64.50
65231;DHT22;51813;40.666;16.602;2022-11-20T12:17:36;18.50;64.50
65231;DHT22;51813;40.666;16.602;2022-11-20T12:20:02;18.50;64.30
65231;DHT22;51813;40.666;16.602;2022-11-20T12:22:37;18.50;64.10
65231;DHT22;51813;40.666;16.602;2022-11-20T12:30:18;18.40;64.20
65231;DHT22;51813;40.666;16.602;2022-11-20T12:38:49;18.40;64.40
65231;DHT22;51813;40.666;16.602;2022-11-20T12:50:57;18.40;65.00
65231;DHT22;51813;40.666;16.602;2022-11-20T13:01:31;18.40;64.30
65231;DHT22;51813;40.666;16.602;2022-11-20T13:06:58;18.30;64.60
65231;DHT22;51813;40.666;16.602;2022-11-20T13:09:26;18.30;64.60
65231;DHT22;51813;40.666;16.602;2022-11-20T13:14:58;18.30;64.30
65231;DHT22;51813;40.666;16.602;2022-11-20T13:20:17;18.40;64.90
65231;DHT22;51813;40.666;16.602;2022-11-20T13:23:01;18.40;64.50
65231;DHT22;51813;40.666;16.602;2022-11-20T13:25:36;18.40;64.40
65231;DHT22;51813;40.666;16.602;2022-11-20T13:30:35;18.40;63.80
65231;DHT22;51813;40.666;16.602;2022-11-20T13:33:21;18.40;63.80
65231;DHT22;51813;40.666;16.602;2022-11-20T13:36:06;18.30;64.00
65231;DHT22;51813;40.666;16.602;2022-11-20T13:38:46;18.40;63.80
65231;DHT22;51813;40.666;16.602;2022-11-20T13:41:24;18.30;63.90
65231;DHT22;51813;40.666;16.602;2022-11-20T13:46:42;18.30;64.00
65231;DHT22;51813;40.666;16.602;2022-11-20T13:55:50;18.40;64.80
65231;DHT22;51813;40.666;16.602;2022-11-20T14:00:28;18.40;64.30
65231;DHT22;51813;40.666;16.602;2022-11-20T14:05:40;18.40;64.20
65231;DHT22;51813;40.666;16.602;2022-11-20T14:08:22;18.40;64.50
65231;DHT22;51813;40.666;16.602;2022-11-20T14:10:48;18.40;64.90
65231;DHT22;51813;40.666;16.602;2022-11-20T14:13:19;18.40;65.30
65231;DHT22;51813;40.666;16.602;2022-11-20T14:15:45;18.40;64.80
65231;DHT22;51813;40.666;16.602;2022-11-20T14:18:20;18.40;64.70
65231;DHT22;51813;40.666;16.602;2022-11-20T14:20:47;18.40;65.40
65231;DHT22;51813;40.666;16.602;2022-11-20T14:23:12;18.40;65.00
65231;DHT22;51813;40.666;16.602;2022-11-20T14:25:48;18.40;65.40
65231;DHT22;51813;40.666;16.602;2022-11-20T14:28:25;18.40;65.20
65231;DHT22;51813;40.666;16.602;2022-11-20T14:30:51;18.40;65.10
65231;DHT22;51813;40.666;16.602;2022-11-20T14:33:18;18.50;65.10
65231;DHT22;51813;40.666;16.602;2022-11-20T14:35:55;18.40;64.90
65231;DHT22;51813;40.666;16.602;2022-11-20T14:38:25;18.40;64.90
65231;DHT22;51813;40.666;16.602;2022-11-20T14:40:51;18.30;65.50
65231;DHT22;51813;40.666;16.602;2022-11-20T14:43:24;18.30;65.40
65231;DHT22;51813;40.666;16.602;2022-11-20T14:46:02;18.30;65.30
65231;DHT22;51813;40.666;16.602;2022-11-20T14:48:35;18.20;65.50
65231;DHT22;51813;40.666;16.602;2022-11-20T14:51:02;18.20;65.60
65231;DHT22;51813;40.666;16.602;2022-11-20T14:53:28;18.20;65.70
65231;DHT22;51813;40.666;16.602;2022-11-20T14:55:59;18.20;65.60
65231;DHT22;51813;40.666;16.602;2022-11-20T14:58:28;18.20;66.20
65231;DHT22;51813;40.666;16.602;2022-11-20T15:01:14;18.30;65.80
65231;DHT22;51813;40.666;16.602;2022-11-20T15:04:02;18.30;65.40
65231;DHT22;51813;40.666;16.602;2022-11-20T15:06:30;18.30;65.30
65231;DHT22;51813;40.666;16.602;2022-11-20T15:08:57;18.30;65.40
65231;DHT22;51813;40.666;16.602;2022-11-20T15:11:34;18.30;65.40
65231;DHT22;51813;40.666;16.602;2022-11-20T15:14:06;18.30;65.40
65231;DHT22;51813;40.666;16.602;2022-11-20T15:16:32;18.30;65.60
65231;DHT22;51813;40.666;16.602;2022-11-20T15:18:58;18.30;65.60
65231;DHT22;51813;40.666;16.602;2022-11-20T15:21:25;18.20;65.70
65231;DHT22;51813;40.666;16.602;2022-11-20T15:23:51;18.20;65.80
65231;DHT22;51813;40.666;16.602;2022-11-20T15:26:35;18.20;66.60
65231;DHT22;51813;40.666;16.602;2022-11-20T15:29:02;18.10;65.90
65231;DHT22;51813;40.666;16.602;2022-11-20T15:31:28;18.10;65.70
65231;DHT22;51813;40.666;16.602;2022-11-20T15:33:53;18.20;65.50
65231;DHT22;51813;40.666;16.602;2022-11-20T15:36:19;18.20;65.20
65231;DHT22;51813;40.666;16.602;2022-11-20T15:38:45;18.20;65.10
65231;DHT22;51813;40.666;16.602;2022-11-20T15:41:10;18.20;65.30
65231;DHT22;51813;40.666;16.602;2022-11-20T15:43:37;18.20;65.30
65231;DHT22;51813;40.666;16.602;2022-11-20T15:46:10;18.20;65.10
65231;DHT22;51813;40.666;16.602;2022-11-20T15:48:41;18.20;65.10
65231;DHT22;51813;40.666;16.602;2022-11-20T15:53:40;18.30;65.20
65231;DHT22;51813;40.666;16.602;2022-11-20T15:56:10;18.20;65.20
65231;DHT22;51813;40.666;16.602;2022-11-20T15:58:37;18.20;65.20
65231;DHT22;51813;40.666;16.602;2022-11-20T16:01:03;18.20;65.30
65231;DHT22;51813;40.666;16.602;2022-11-20T16:03:29;18.20;65.50
65231;DHT22;51813;40.666;16.602;2022-11-20T16:05:55;18.20;65.70
65231;DHT22;51813;40.666;16.602;2022-11-20T16:08:21;18.30;65.60
65231;DHT22;51813;40.666;16.602;2022-11-20T16:10:46;18.30;65.30
65231;DHT22;51813;40.666;16.602;2022-11-20T16:13:17;18.30;65.20
65231;DHT22;51813;40.666;16.602;2022-11-20T16:16:11;18.30;65.10
65231;DHT22;51813;40.666;16.602;2022-11-20T16:18:43;18.30;64.90
65231;DHT22;51813;40.666;16.602;2022-11-20T16:21:11;18.30;65.10
65231;DHT22;51813;40.666;16.602;2022-11-20T16:23:38;18.30;65.20
65231;DHT22;51813;40.666;16.602;2022-11-20T16:26:15;18.30;65.30
65231;DHT22;51813;40.666;16.602;2022-11-20T16:28:42;18.30;65.30
65231;DHT22;51813;40.666;16.602;2022-11-20T16:31:13;18.30;65.30
65231;DHT22;51813;40.666;16.602;2022-11-20T16:33:39;18.20;65.20
65231;DHT22;51813;40.666;16.602;2022-11-20T16:36:09;18.20;65.60
65231;DHT22;51813;40.666;16.602;2022-11-20T16:38:35;18.30;65.50
65231;DHT22;51813;40.666;16.602;2022-11-20T16:41:02;18.30;65.50
65231;DHT22;51813;40.666;16.602;2022-11-20T16:43:28;18.30;65.50
65231;DHT22;51813;40.666;16.602;2022-11-20T16:45:53;18.30;65.00
65231;DHT22;51813;40.666;16.602;2022-11-20T16:48:19;18.30;64.80
65231;DHT22;51813;40.666;16.602;2022-11-20T16:50:50;18.30;64.90
65231;DHT22;51813;40.666;16.602;2022-11-20T16:53:20;18.20;64.90
65231;DHT22;51813;40.666;16.602;2022-11-20T16:55:46;18.20;64.70
65231;DHT22;51813;40.666;16.602;2022-11-20T16:58:13;18.20;65.30
65231;DHT22;51813;40.666;16.602;2022-11-20T17:00:39;18.20;65.00
65231;DHT22;51813;40.666;16.602;2022-11-20T17:03:06;18.20;65.10
65231;DHT22;51813;40.666;16.602;2022-11-20T17:05:32;18.20;65.00